Flaxville, Montana
Current Conditions -  °F | °C
As of 7:53 PM on Friday 21 Nov 2014 (Local Time) from KOLF Reporting Station
Clear Clear  
Wind Chill: 33°   Ceiling: Unl
Heat Index: 33°   Visibility: 10mi
Dew Point: 28°   Wind: 0mph
Humidity: 82%   Direction: NA
Pressure: 29.66"   Gusts: NA
Location:  48.8°N, 105.17°W
Report Text: KOLF 220253Z AUTO 00000KT 10SM CLR 01/M02 A2966 RMK AO2 SLP072 T00061022 58009
Loading
Personal Weather Stations






























Interactive Weather Map New forecast layout! Learn more

10-Day Weather Forecast

Advertisements
Track Severe Weather on mobile